Mojave, CA

3:30 AM PST on December 15, 2019 (GMT -0800)
Mojave

Weather History for KMHV - October, 2019

Change the Weather History Date:

Friday, October 18, 2019

  Actual Average Record
Temperature  
Mean Temperature 62 °F -  
Max Temperature 71 °F 77 °F 92 °F (1988)
Min Temperature 53 °F 46 °F 33 °F (1971)
Degree Days  
Heating Degree Days 3    
Growing Degree Days 12 (Base 50)    
Moisture  
Dew Point 32 °F    
Average Humidity 36    
Maximum Humidity 58    
Minimum Humidity 20    
Precipitation  
Precipitation 0.00 in - - ()
Sea Level Pressure  
Sea Level Pressure 29.95 in    
Wind  
Wind Speed 24 mph (WNW)    
Max Wind Speed 44 mph    
Max Gust Speed 60 mph    
Visibility 10 miles    
Events      
Averages and records for this station are not official NWS values.
T = Trace of Precipitation, MM = Missing Value Source: NWS Daily Summary

Daily Weather History Graph

Daily Weather History Graph

Search for Another Location

Airport or City:

Astronomy

Oct. 18, 2019 Rise Set
Actual Time 7:00 AM PDT 6:13 PM PDT
Civil Twilight 6:35 AM PDT 6:39 PM PDT
Nautical Twilight 6:05 AM PDT 7:09 PM PDT
Astronomical Twilight 5:36 AM PDT 7:38 PM PDT
Moon 9:43 PM PDT (10/18) 11:30 AM PDT (10/18)
Length of Visible Light 12h 04m
Length of Day
11h 12m
Waning Gibbous, 78% of the Moon is Illuminated
Oct 18
Waning Gibbous
Oct 21
Last Quarter
Oct 27
New
Nov 4
First Quarter
Nov 12
Full

Hourly Weather History & Observations

Time (PDT) Temp. Dew Point Humidity Pressure Visibility Wind Dir Wind Speed Gust Speed Precip Events Conditions
12:00 AM 55.4 °F 39.2 °F 54% 29.80 in 10.0 mi WNW 41.4 mph 59.8 mph N/A   Clear
12:20 AM 53.6 °F 39.2 °F 58% 29.81 in 10.0 mi WNW 36.8 mph 58.7 mph N/A   Clear
12:40 AM 53.6 °F 39.2 °F 58% 29.81 in 10.0 mi NW 41.4 mph 52.9 mph N/A   Clear
1:00 AM 53.6 °F 39.2 °F 58% 29.81 in 10.0 mi WNW 43.7 mph 54.1 mph N/A   Clear
1:20 AM 53.6 °F 39.2 °F 58% 29.82 in 10.0 mi WNW 41.4 mph 50.6 mph N/A   Clear
1:40 AM 53.6 °F 39.2 °F 58% 29.85 in 10.0 mi NW 42.6 mph 55.2 mph N/A   Clear
2:00 AM 53.6 °F 37.4 °F 54% 29.85 in 10.0 mi NW 35.7 mph 52.9 mph N/A   Clear
2:20 AM 53.6 °F 35.6 °F 51% 29.86 in 10.0 mi NW 31.1 mph 50.6 mph N/A   Clear
2:40 AM 53.6 °F 35.6 °F 51% 29.87 in 10.0 mi NW 29.9 mph 40.3 mph N/A   Clear
3:00 AM 53.6 °F 35.6 °F 51% 29.86 in 10.0 mi NW 34.5 mph 46.0 mph N/A   Clear
3:20 AM 53.6 °F 33.8 °F 47% 29.87 in 10.0 mi WNW 33.4 mph 40.3 mph N/A   Clear
3:40 AM 55.4 °F 33.8 °F 44% 29.86 in 10.0 mi NW 29.9 mph 38.0 mph N/A   Clear
4:00 AM 55.4 °F 33.8 °F 44% 29.87 in 10.0 mi NW 23.0 mph 38.0 mph N/A   Clear
4:20 AM 55.4 °F 33.8 °F 44% 29.91 in 10.0 mi NE 13.8 mph 29.9 mph N/A   Clear
4:40 AM 55.4 °F 35.6 °F 47% 29.93 in 10.0 mi WNW 11.5 mph 19.6 mph N/A   Clear
5:00 AM 53.6 °F 35.6 °F 51% 29.95 in 10.0 mi SSW 12.7 mph 21.9 mph N/A   Clear
5:20 AM 53.6 °F 35.6 °F 51% 29.93 in 10.0 mi WNW 15.0 mph - N/A   Clear
5:40 AM 53.6 °F 37.4 °F 54% 29.94 in 10.0 mi West 20.7 mph - N/A   Clear
6:00 AM 53.6 °F 35.6 °F 51% 29.94 in 10.0 mi NW 16.1 mph 23.0 mph N/A   Clear
6:20 AM 53.6 °F 33.8 °F 47% 29.96 in 10.0 mi North 8.1 mph - N/A   Clear
6:40 AM 53.6 °F 37.4 °F 54% 29.96 in 10.0 mi NW 17.3 mph 26.5 mph N/A   Clear
7:00 AM 53.6 °F 37.4 °F 54% 29.97 in 10.0 mi WNW 6.9 mph 16.1 mph N/A   Clear
7:20 AM 53.6 °F 37.4 °F 54% 29.98 in 10.0 mi NW 9.2 mph - N/A   Clear
7:40 AM 55.4 °F 35.6 °F 47% 29.98 in 10.0 mi WNW 16.1 mph - N/A   Clear
8:00 AM 57.2 °F 35.6 °F 44% 29.99 in 10.0 mi WNW 13.8 mph - N/A   Clear
8:20 AM 59.0 °F 35.6 °F 42% 30.00 in 10.0 mi WNW 17.3 mph - N/A   Clear
8:40 AM 59.0 °F 35.6 °F 42% 30.02 in 10.0 mi WNW 11.5 mph 19.6 mph N/A   Clear
9:00 AM 60.8 °F 33.8 °F 36% 30.03 in 10.0 mi NW 10.4 mph 17.3 mph N/A   Clear
9:20 AM 64.4 °F 35.6 °F 34% 30.03 in 10.0 mi West 11.5 mph - N/A   Clear
9:40 AM 64.4 °F 33.8 °F 32% 30.03 in 10.0 mi Calm Calm - N/A   Clear
10:00 AM 64.4 °F 30.2 °F 28% 30.03 in 10.0 mi East 6.9 mph - N/A   Clear
10:20 AM 64.4 °F 32.0 °F 30% 30.03 in 10.0 mi ESE 9.2 mph - N/A   Clear
10:40 AM 64.4 °F 30.2 °F 28% 30.04 in 10.0 mi SSE 5.8 mph - N/A   Clear
11:00 AM 66.2 °F 30.2 °F 26% 30.04 in 10.0 mi Calm Calm - N/A   Clear
11:20 AM 68.0 °F 30.2 °F 24% 30.04 in 10.0 mi SSE 6.9 mph - N/A   Clear
11:40 AM 69.8 °F 32.0 °F 25% 30.04 in 10.0 mi West 9.2 mph - N/A   Clear
12:00 PM 68.0 °F 30.2 °F 24% 30.03 in 10.0 mi Variable 3.5 mph - N/A   Clear
12:20 PM 69.8 °F 32.0 °F 25% 30.02 in 10.0 mi Variable 3.5 mph 13.8 mph N/A   Clear
12:40 PM 69.8 °F 28.4 °F 21% 30.02 in 10.0 mi Calm Calm - N/A   Clear
1:00 PM 71.6 °F 30.2 °F 22% 30.01 in 10.0 mi SSE 5.8 mph - N/A   Clear
1:20 PM 71.6 °F 28.4 °F 20% 30.00 in 10.0 mi SW 5.8 mph - N/A   Clear
1:40 PM 71.6 °F 28.4 °F 20% 29.99 in 10.0 mi WSW 11.5 mph 17.3 mph N/A   Clear
2:00 PM 71.6 °F 30.2 °F 22% 29.98 in 10.0 mi WSW 9.2 mph 17.3 mph N/A   Clear
2:20 PM 71.6 °F 32.0 °F 23% 29.98 in 10.0 mi West 19.6 mph - N/A   Clear
2:40 PM 71.6 °F 33.8 °F 25% 29.97 in 10.0 mi West 21.9 mph - N/A   Clear
3:00 PM 69.8 °F 33.8 °F 27% 29.98 in 10.0 mi West 21.9 mph - N/A   Clear
3:20 PM 68.0 °F 33.8 °F 28% 29.98 in 10.0 mi West 21.9 mph 33.4 mph N/A   Clear
3:40 PM 68.0 °F 33.8 °F 28% 29.98 in 10.0 mi West 19.6 mph 25.3 mph N/A   Clear
4:00 PM 66.2 °F 33.8 °F 30% 29.98 in 10.0 mi SSE 9.2 mph 15.0 mph N/A   Clear
4:20 PM 66.2 °F 33.8 °F 30% 29.97 in 10.0 mi South 13.8 mph 21.9 mph N/A   Clear
4:40 PM 66.2 °F 32.0 °F 28% 29.96 in 10.0 mi South 10.4 mph 24.2 mph N/A   Clear
5:00 PM 66.2 °F 32.0 °F 28% 29.94 in 10.0 mi WNW 21.9 mph 32.2 mph N/A   Clear
5:20 PM 64.4 °F 32.0 °F 30% 29.94 in 10.0 mi WNW 25.3 mph 39.1 mph N/A   Clear
5:40 PM 62.6 °F 32.0 °F 32% 29.96 in 10.0 mi WNW 23.0 mph 29.9 mph N/A   Clear
6:00 PM 62.6 °F 32.0 °F 32% 29.97 in 10.0 mi West 18.4 mph 25.3 mph N/A   Clear
6:20 PM 60.8 °F 32.0 °F 34% 29.97 in 10.0 mi WSW 15.0 mph - N/A   Clear
6:40 PM 60.8 °F 26.6 °F 27% 29.96 in 10.0 mi NNW 13.8 mph 21.9 mph N/A   Clear
7:00 PM 60.8 °F 24.8 °F 25% 29.97 in 10.0 mi NNW 9.2 mph 17.3 mph N/A   Clear
7:20 PM 60.8 °F 23.0 °F 23% 29.97 in 10.0 mi WNW 23.0 mph 36.8 mph N/A   Clear
7:40 PM 60.8 °F 23.0 °F 23% 29.97 in 10.0 mi WNW 21.9 mph 32.2 mph N/A   Clear
8:00 PM 60.8 °F 24.8 °F 25% 29.95 in 10.0 mi NW 38.0 mph 44.9 mph N/A   Clear
8:20 PM 60.8 °F 24.8 °F 25% 29.94 in 10.0 mi NNW 28.8 mph 49.5 mph N/A   Clear
8:40 PM 59.0 °F 24.8 °F 27% 29.97 in 10.0 mi Variable 11.5 mph 19.6 mph N/A   Clear
9:00 PM 59.0 °F 26.6 °F 29% 29.97 in 10.0 mi WNW 11.5 mph 24.2 mph N/A   Clear
9:20 PM 59.0 °F 23.0 °F 25% 29.94 in 10.0 mi WNW 25.3 mph 38.0 mph N/A   Clear
9:40 PM 60.8 °F 24.8 °F 25% 29.96 in 10.0 mi West 24.2 mph 32.2 mph N/A   Clear
10:00 PM 59.0 °F 24.8 °F 27% 29.95 in 10.0 mi NW 20.7 mph 28.8 mph N/A   Clear
10:20 PM 60.8 °F 19.4 °F 20% 29.97 in 10.0 mi Variable 5.8 mph 16.1 mph N/A   Clear
10:40 PM 60.8 °F 24.8 °F 25% 29.97 in 10.0 mi Variable 6.9 mph - N/A   Clear
11:00 PM 59.0 °F 28.4 °F 31% 29.97 in 10.0 mi West 19.6 mph - N/A   Clear
11:20 PM 59.0 °F 24.8 °F 27% 29.97 in 10.0 mi WNW 11.5 mph - N/A   Clear
11:40 PM 57.2 °F 19.4 °F 23% 29.97 in 10.0 mi West 4.6 mph - N/A   Clear